sensor_id;sensor_type;location;lat;lon;timestamp;temperature;humidity
52867;DHT22;38739;53.324;6.862;2023-02-08T00:01:52;-1.80;99.90
52867;DHT22;38739;53.324;6.862;2023-02-08T00:04:17;-1.80;99.90
52867;DHT22;38739;53.324;6.862;2023-02-08T00:06:43;-1.80;99.90
52867;DHT22;38739;53.324;6.862;2023-02-08T00:09:09;-1.80;99.90
52867;DHT22;38739;53.324;6.862;2023-02-08T00:11:35;-1.80;99.90
52867;DHT22;38739;53.324;6.862;2023-02-08T00:14:00;-1.70;99.90
52867;DHT22;38739;53.324;6.862;2023-02-08T00:16:26;-1.70;99.90
52867;DHT22;38739;53.324;6.862;2023-02-08T00:18:52;-1.70;99.90
52867;DHT22;38739;53.324;6.862;2023-02-08T00:21:18;-1.70;99.90
52867;DHT22;38739;53.324;6.862;2023-02-08T00:23:47;-1.60;99.90
52867;DHT22;38739;53.324;6.862;2023-02-08T00:26:13;-1.60;99.90
52867;DHT22;38739;53.324;6.862;2023-02-08T00:28:39;-1.60;99.90
52867;DHT22;38739;53.324;6.862;2023-02-08T00:31:06;-1.60;99.90
52867;DHT22;38739;53.324;6.862;2023-02-08T00:33:32;-1.60;99.90
52867;DHT22;38739;53.324;6.862;2023-02-08T00:36:04;-1.60;99.90
52867;DHT22;38739;53.324;6.862;2023-02-08T00:38:30;-1.60;99.90
52867;DHT22;38739;53.324;6.862;2023-02-08T00:40:56;-1.50;99.90
52867;DHT22;38739;53.324;6.862;2023-02-08T00:43:22;-1.50;99.90
52867;DHT22;38739;53.324;6.862;2023-02-08T00:45:53;-1.50;99.90
52867;DHT22;38739;53.324;6.862;2023-02-08T00:48:18;-1.50;99.90
52867;DHT22;38739;53.324;6.862;2023-02-08T00:50:44;-1.50;99.90
52867;DHT22;38739;53.324;6.862;2023-02-08T00:53:10;-1.50;99.90
52867;DHT22;38739;53.324;6.862;2023-02-08T00:55:36;-1.50;99.90
52867;DHT22;38739;53.324;6.862;2023-02-08T00:58:04;-1.50;99.90
52867;DHT22;38739;53.324;6.862;2023-02-08T01:00:30;-1.50;99.90
52867;DHT22;38739;53.324;6.862;2023-02-08T01:02:56;-1.60;99.90
52867;DHT22;38739;53.324;6.862;2023-02-08T01:05:21;-1.50;99.90
52867;DHT22;38739;53.324;6.862;2023-02-08T01:07:47;-1.60;99.90
52867;DHT22;38739;53.324;6.862;2023-02-08T01:10:12;-1.60;99.90
52867;DHT22;38739;53.324;6.862;2023-02-08T01:12:38;-1.60;99.90
52867;DHT22;38739;53.324;6.862;2023-02-08T01:15:04;-1.60;99.90
52867;DHT22;38739;53.324;6.862;2023-02-08T01:17:30;-1.60;99.90
52867;DHT22;38739;53.324;6.862;2023-02-08T01:19:56;-1.60;99.90
52867;DHT22;38739;53.324;6.862;2023-02-08T01:22:21;-1.60;99.90
52867;DHT22;38739;53.324;6.862;2023-02-08T01:24:47;-1.60;99.90
52867;DHT22;38739;53.324;6.862;2023-02-08T01:27:13;-1.60;99.90
52867;DHT22;38739;53.324;6.862;2023-02-08T01:29:38;-1.60;99.90
52867;DHT22;38739;53.324;6.862;2023-02-08T01:32:04;-1.60;99.90
52867;DHT22;38739;53.324;6.862;2023-02-08T01:34:30;-1.60;99.90
52867;DHT22;38739;53.324;6.862;2023-02-08T01:36:55;-1.60;99.90
52867;DHT22;38739;53.324;6.862;2023-02-08T01:39:21;-1.60;99.90
52867;DHT22;38739;53.324;6.862;2023-02-08T01:41:47;-1.70;99.90
52867;DHT22;38739;53.324;6.862;2023-02-08T01:46:40;-1.70;99.90
52867;DHT22;38739;53.324;6.862;2023-02-08T01:49:30;-1.70;99.90
52867;DHT22;38739;53.324;6.862;2023-02-08T01:52:23;-1.70;99.90
52867;DHT22;38739;53.324;6.862;2023-02-08T01:55:08;-1.70;99.90
52867;DHT22;38739;53.324;6.862;2023-02-08T01:57:36;-1.70;99.90
52867;DHT22;38739;53.324;6.862;2023-02-08T02:00:21;-1.70;99.90
52867;DHT22;38739;53.324;6.862;2023-02-08T02:02:52;-1.80;99.90
52867;DHT22;38739;53.324;6.862;2023-02-08T02:05:21;-1.80;99.90
52867;DHT22;38739;53.324;6.862;2023-02-08T02:07:48;-1.80;99.90
52867;DHT22;38739;53.324;6.862;2023-02-08T02:10:30;-1.80;99.90
52867;DHT22;38739;53.324;6.862;2023-02-08T02:13:08;-1.80;99.90
52867;DHT22;38739;53.324;6.862;2023-02-08T02:15:34;-1.80;99.90
52867;DHT22;38739;53.324;6.862;2023-02-08T02:18:01;-1.80;99.90
52867;DHT22;38739;53.324;6.862;2023-02-08T02:32:51;-1.80;99.90
52867;DHT22;38739;53.324;6.862;2023-02-08T02:35:53;-1.80;99.90
52867;DHT22;38739;53.324;6.862;2023-02-08T02:38:53;-1.80;99.90
52867;DHT22;38739;53.324;6.862;2023-02-08T02:41:48;-1.80;99.90
52867;DHT22;38739;53.324;6.862;2023-02-08T02:50:44;-1.80;99.90
52867;DHT22;38739;53.324;6.862;2023-02-08T02:53:47;-1.90;99.90
52867;DHT22;38739;53.324;6.862;2023-02-08T02:56:17;-1.90;99.90
52867;DHT22;38739;53.324;6.862;2023-02-08T02:58:44;-1.90;99.90
52867;DHT22;38739;53.324;6.862;2023-02-08T03:01:10;-1.80;99.90
52867;DHT22;38739;53.324;6.862;2023-02-08T03:03:36;-1.90;99.90
52867;DHT22;38739;53.324;6.862;2023-02-08T03:06:15;-1.90;99.90
52867;DHT22;38739;53.324;6.862;2023-02-08T03:11:22;-1.90;99.90
52867;DHT22;38739;53.324;6.862;2023-02-08T03:19:25;-1.90;99.90
52867;DHT22;38739;53.324;6.862;2023-02-08T03:22:04;-1.90;99.90
52867;DHT22;38739;53.324;6.862;2023-02-08T03:24:48;-1.90;99.90
52867;DHT22;38739;53.324;6.862;2023-02-08T03:27:26;-2.00;99.90
52867;DHT22;38739;53.324;6.862;2023-02-08T03:32:45;-2.00;99.90
52867;DHT22;38739;53.324;6.862;2023-02-08T03:35:18;-2.00;99.90
52867;DHT22;38739;53.324;6.862;2023-02-08T03:38:02;-2.00;99.90
52867;DHT22;38739;53.324;6.862;2023-02-08T03:40:38;-2.00;99.90
52867;DHT22;38739;53.324;6.862;2023-02-08T03:43:36;-2.00;99.90
52867;DHT22;38739;53.324;6.862;2023-02-08T03:46:13;-2.10;99.90
52867;DHT22;38739;53.324;6.862;2023-02-08T03:48:45;-2.10;99.90
52867;DHT22;38739;53.324;6.862;2023-02-08T03:51:14;-2.10;99.90
52867;DHT22;38739;53.324;6.862;2023-02-08T03:53:44;-2.10;99.90
52867;DHT22;38739;53.324;6.862;2023-02-08T03:56:23;-2.20;99.90
52867;DHT22;38739;53.324;6.862;2023-02-08T03:58:59;-2.20;99.90
52867;DHT22;38739;53.324;6.862;2023-02-08T04:01:37;-2.20;99.90
52867;DHT22;38739;53.324;6.862;2023-02-08T04:04:05;-2.20;99.90
52867;DHT22;38739;53.324;6.862;2023-02-08T04:06:31;-2.20;99.90
52867;DHT22;38739;53.324;6.862;2023-02-08T04:08:57;-2.30;99.90
52867;DHT22;38739;53.324;6.862;2023-02-08T04:11:22;-2.20;99.90
52867;DHT22;38739;53.324;6.862;2023-02-08T04:13:48;-2.20;99.90
52867;DHT22;38739;53.324;6.862;2023-02-08T04:16:14;-2.20;99.90
52867;DHT22;38739;53.324;6.862;2023-02-08T04:18:39;-2.20;99.90
52867;DHT22;38739;53.324;6.862;2023-02-08T04:21:05;-2.20;99.90
52867;DHT22;38739;53.324;6.862;2023-02-08T04:23:31;-2.20;99.90
52867;DHT22;38739;53.324;6.862;2023-02-08T04:25:59;-2.20;99.90
52867;DHT22;38739;53.324;6.862;2023-02-08T04:28:25;-2.20;99.90
52867;DHT22;38739;53.324;6.862;2023-02-08T04:30:51;-2.20;99.90
52867;DHT22;38739;53.324;6.862;2023-02-08T04:33:19;-2.20;99.90
52867;DHT22;38739;53.324;6.862;2023-02-08T04:35:44;-2.30;99.90
52867;DHT22;38739;53.324;6.862;2023-02-08T04:38:10;-2.30;99.90
52867;DHT22;38739;53.324;6.862;2023-02-08T04:40:36;-2.30;99.90
52867;DHT22;38739;53.324;6.862;2023-02-08T04:43:01;-2.30;99.90
52867;DHT22;38739;53.324;6.862;2023-02-08T04:45:30;-2.30;99.90
52867;DHT22;38739;53.324;6.862;2023-02-08T04:48:02;-2.30;99.90
52867;DHT22;38739;53.324;6.862;2023-02-08T04:50:28;-2.30;99.90
52867;DHT22;38739;53.324;6.862;2023-02-08T04:52:54;-2.40;99.90
52867;DHT22;38739;53.324;6.862;2023-02-08T04:55:20;-2.40;99.90
52867;DHT22;38739;53.324;6.862;2023-02-08T04:57:46;-2.40;99.90
52867;DHT22;38739;53.324;6.862;2023-02-08T05:00:12;-2.50;99.90
52867;DHT22;38739;53.324;6.862;2023-02-08T05:02:37;-2.50;99.90
52867;DHT22;38739;53.324;6.862;2023-02-08T05:05:03;-2.50;99.90
52867;DHT22;38739;53.324;6.862;2023-02-08T05:07:29;-2.50;99.90
52867;DHT22;38739;53.324;6.862;2023-02-08T05:09:55;-2.50;99.90
52867;DHT22;38739;53.324;6.862;2023-02-08T05:12:20;-2.50;99.90
52867;DHT22;38739;53.324;6.862;2023-02-08T05:14:46;-2.50;99.90
52867;DHT22;38739;53.324;6.862;2023-02-08T05:17:12;-2.50;99.90
52867;DHT22;38739;53.324;6.862;2023-02-08T05:19:37;-2.50;99.90
52867;DHT22;38739;53.324;6.862;2023-02-08T05:22:03;-2.50;99.90
52867;DHT22;38739;53.324;6.862;2023-02-08T05:24:29;-2.50;99.90
52867;DHT22;38739;53.324;6.862;2023-02-08T05:26:54;-2.50;99.90
52867;DHT22;38739;53.324;6.862;2023-02-08T05:29:20;-2.50;99.90
52867;DHT22;38739;53.324;6.862;2023-02-08T05:31:46;-2.50;99.90
52867;DHT22;38739;53.324;6.862;2023-02-08T05:34:11;-2.50;99.90
52867;DHT22;38739;53.324;6.862;2023-02-08T05:36:37;-2.50;99.90
52867;DHT22;38739;53.324;6.862;2023-02-08T05:39:03;-2.50;99.90
52867;DHT22;38739;53.324;6.862;2023-02-08T05:41:29;-2.50;99.90
52867;DHT22;38739;53.324;6.862;2023-02-08T05:43:55;-2.50;99.90
52867;DHT22;38739;53.324;6.862;2023-02-08T05:46:20;-2.50;99.90
52867;DHT22;38739;53.324;6.862;2023-02-08T05:48:46;-2.50;99.90
52867;DHT22;38739;53.324;6.862;2023-02-08T05:51:12;-2.50;99.90
52867;DHT22;38739;53.324;6.862;2023-02-08T05:53:40;-2.50;99.90
52867;DHT22;38739;53.324;6.862;2023-02-08T05:56:09;-2.40;99.90
52867;DHT22;38739;53.324;6.862;2023-02-08T05:58:35;-2.40;99.90
52867;DHT22;38739;53.324;6.862;2023-02-08T06:01:06;-2.50;99.90
52867;DHT22;38739;53.324;6.862;2023-02-08T06:03:31;-2.40;99.90
52867;DHT22;38739;53.324;6.862;2023-02-08T06:05:59;-2.40;99.90
52867;DHT22;38739;53.324;6.862;2023-02-08T06:08:26;-2.40;99.90
52867;DHT22;38739;53.324;6.862;2023-02-08T06:10:51;-2.40;99.90
52867;DHT22;38739;53.324;6.862;2023-02-08T06:13:17;-2.40;99.90
52867;DHT22;38739;53.324;6.862;2023-02-08T06:15:43;-2.40;99.90
52867;DHT22;38739;53.324;6.862;2023-02-08T06:18:09;-2.40;99.90
52867;DHT22;38739;53.324;6.862;2023-02-08T06:20:36;-2.40;99.90
52867;DHT22;38739;53.324;6.862;2023-02-08T06:23:02;-2.40;99.90
52867;DHT22;38739;53.324;6.862;2023-02-08T06:25:28;-2.40;99.90
52867;DHT22;38739;53.324;6.862;2023-02-08T06:27:54;-2.40;99.90
52867;DHT22;38739;53.324;6.862;2023-02-08T06:30:19;-2.40;99.90
52867;DHT22;38739;53.324;6.862;2023-02-08T06:32:45;-2.40;99.90
52867;DHT22;38739;53.324;6.862;2023-02-08T06:35:11;-2.40;99.90
52867;DHT22;38739;53.324;6.862;2023-02-08T06:37:40;-2.40;99.90
52867;DHT22;38739;53.324;6.862;2023-02-08T06:40:06;-2.40;99.90
52867;DHT22;38739;53.324;6.862;2023-02-08T06:42:32;-2.40;99.90
52867;DHT22;38739;53.324;6.862;2023-02-08T06:45:00;-2.40;99.90
52867;DHT22;38739;53.324;6.862;2023-02-08T06:47:26;-2.40;99.90
52867;DHT22;38739;53.324;6.862;2023-02-08T06:49:54;-2.40;99.90
52867;DHT22;38739;53.324;6.862;2023-02-08T06:52:22;-2.40;99.90
52867;DHT22;38739;53.324;6.862;2023-02-08T06:54:48;-2.40;99.90
52867;DHT22;38739;53.324;6.862;2023-02-08T06:57:14;-2.40;99.90
52867;DHT22;38739;53.324;6.862;2023-02-08T06:59:40;-2.40;99.90
52867;DHT22;38739;53.324;6.862;2023-02-08T07:02:17;-2.40;99.90
52867;DHT22;38739;53.324;6.862;2023-02-08T07:04:43;-2.40;99.90
52867;DHT22;38739;53.324;6.862;2023-02-08T07:07:11;-2.40;99.90
52867;DHT22;38739;53.324;6.862;2023-02-08T07:09:37;-2.30;99.90
52867;DHT22;38739;53.324;6.862;2023-02-08T07:12:03;-2.40;99.90
52867;DHT22;38739;53.324;6.862;2023-02-08T07:14:38;-2.40;99.90
52867;DHT22;38739;53.324;6.862;2023-02-08T07:17:05;-2.40;99.90
52867;DHT22;38739;53.324;6.862;2023-02-08T07:19:33;-2.40;99.90
52867;DHT22;38739;53.324;6.862;2023-02-08T07:22:03;-2.40;99.90
52867;DHT22;38739;53.324;6.862;2023-02-08T07:24:36;-2.40;99.90
52867;DHT22;38739;53.324;6.862;2023-02-08T07:27:03;-2.40;99.90
52867;DHT22;38739;53.324;6.862;2023-02-08T07:29:31;-2.30;99.90
52867;DHT22;38739;53.324;6.862;2023-02-08T07:31:58;-2.40;99.90
52867;DHT22;38739;53.324;6.862;2023-02-08T07:34:34;-2.30;99.90
52867;DHT22;38739;53.324;6.862;2023-02-08T07:37:04;-2.30;99.90
52867;DHT22;38739;53.324;6.862;2023-02-08T07:39:32;-2.30;99.90
52867;DHT22;38739;53.324;6.862;2023-02-08T07:42:01;-2.30;99.90
52867;DHT22;38739;53.324;6.862;2023-02-08T07:44:36;-2.30;99.90
52867;DHT22;38739;53.324;6.862;2023-02-08T07:47:03;-2.30;99.90
52867;DHT22;38739;53.324;6.862;2023-02-08T07:49:32;-2.20;99.90
52867;DHT22;38739;53.324;6.862;2023-02-08T07:52:01;-2.20;99.90
52867;DHT22;38739;53.324;6.862;2023-02-08T07:54:30;-2.20;99.90
52867;DHT22;38739;53.324;6.862;2023-02-08T07:56:55;-2.10;99.90
52867;DHT22;38739;53.324;6.862;2023-02-08T07:59:21;-2.10;99.90
52867;DHT22;38739;53.324;6.862;2023-02-08T08:01:47;-2.10;99.90
52867;DHT22;38739;53.324;6.862;2023-02-08T08:04:15;-2.00;99.90
52867;DHT22;38739;53.324;6.862;2023-02-08T08:06:51;-2.00;99.90
52867;DHT22;38739;53.324;6.862;2023-02-08T08:09:23;-2.00;99.90
52867;DHT22;38739;53.324;6.862;2023-02-08T08:11:48;-1.90;99.90
52867;DHT22;38739;53.324;6.862;2023-02-08T08:14:14;-1.90;99.90
52867;DHT22;38739;53.324;6.862;2023-02-08T08:16:40;-1.90;99.90
52867;DHT22;38739;53.324;6.862;2023-02-08T08:19:08;-1.80;99.90
52867;DHT22;38739;53.324;6.862;2023-02-08T08:21:34;-1.80;99.90
52867;DHT22;38739;53.324;6.862;2023-02-08T08:24:00;-1.70;99.90
52867;DHT22;38739;53.324;6.862;2023-02-08T08:26:25;-1.70;99.90
52867;DHT22;38739;53.324;6.862;2023-02-08T08:28:51;-1.70;99.90
52867;DHT22;38739;53.324;6.862;2023-02-08T08:31:19;-1.60;99.90
52867;DHT22;38739;53.324;6.862;2023-02-08T08:33:45;-1.60;99.90
52867;DHT22;38739;53.324;6.862;2023-02-08T08:36:11;-1.50;99.90
52867;DHT22;38739;53.324;6.862;2023-02-08T08:38:37;-1.50;99.90
52867;DHT22;38739;53.324;6.862;2023-02-08T08:41:11;-1.40;99.90
52867;DHT22;38739;53.324;6.862;2023-02-08T08:43:37;-1.40;99.90
52867;DHT22;38739;53.324;6.862;2023-02-08T08:46:09;-1.30;99.90
52867;DHT22;38739;53.324;6.862;2023-02-08T08:48:36;-1.30;99.90
52867;DHT22;38739;53.324;6.862;2023-02-08T08:51:02;-1.30;99.90
52867;DHT22;38739;53.324;6.862;2023-02-08T08:53:28;-1.30;99.90
52867;DHT22;38739;53.324;6.862;2023-02-08T08:55:56;-1.20;99.90
52867;DHT22;38739;53.324;6.862;2023-02-08T08:58:22;-1.20;99.90
52867;DHT22;38739;53.324;6.862;2023-02-08T09:00:47;-1.10;99.90
52867;DHT22;38739;53.324;6.862;2023-02-08T09:03:13;-1.10;99.90
52867;DHT22;38739;53.324;6.862;2023-02-08T09:05:39;-1.00;99.90
52867;DHT22;38739;53.324;6.862;2023-02-08T09:08:05;-0.90;99.90
52867;DHT22;38739;53.324;6.862;2023-02-08T09:10:30;-0.90;99.90
52867;DHT22;38739;53.324;6.862;2023-02-08T09:12:57;-0.80;99.90
52867;DHT22;38739;53.324;6.862;2023-02-08T09:15:23;-0.80;99.90
52867;DHT22;38739;53.324;6.862;2023-02-08T09:17:48;-0.80;99.90
52867;DHT22;38739;53.324;6.862;2023-02-08T09:20:14;-0.70;99.90
52867;DHT22;38739;53.324;6.862;2023-02-08T09:22:40;-0.60;99.90
52867;DHT22;38739;53.324;6.862;2023-02-08T09:25:06;-0.50;99.90
52867;DHT22;38739;53.324;6.862;2023-02-08T09:27:32;-0.50;99.90
52867;DHT22;38739;53.324;6.862;2023-02-08T09:29:59;-0.40;99.90
52867;DHT22;38739;53.324;6.862;2023-02-08T09:32:24;-0.30;99.90
52867;DHT22;38739;53.324;6.862;2023-02-08T09:34:50;-0.30;99.90
52867;DHT22;38739;53.324;6.862;2023-02-08T09:37:16;-0.20;99.90
52867;DHT22;38739;53.324;6.862;2023-02-08T09:39:43;-0.20;99.90
52867;DHT22;38739;53.324;6.862;2023-02-08T09:42:28;0.00;99.90
52867;DHT22;38739;53.324;6.862;2023-02-08T09:48:11;0.10;99.90
52867;DHT22;38739;53.324;6.862;2023-02-08T09:50:45;0.30;99.90
52867;DHT22;38739;53.324;6.862;2023-02-08T09:53:33;0.40;99.90
52867;DHT22;38739;53.324;6.862;2023-02-08T09:56:11;0.50;99.90
52867;DHT22;38739;53.324;6.862;2023-02-08T09:58:48;0.60;99.90
52867;DHT22;38739;53.324;6.862;2023-02-08T10:01:22;0.80;99.90
52867;DHT22;38739;53.324;6.862;2023-02-08T10:03:52;1.20;99.90
52867;DHT22;38739;53.324;6.862;2023-02-08T10:06:23;1.90;99.90
52867;DHT22;38739;53.324;6.862;2023-02-08T10:08:50;2.50;99.90
52867;DHT22;38739;53.324;6.862;2023-02-08T10:17:18;3.90;99.90
52867;DHT22;38739;53.324;6.862;2023-02-08T10:20:03;4.10;99.90
52867;DHT22;38739;53.324;6.862;2023-02-08T10:34:08;4.80;99.90
52867;DHT22;38739;53.324;6.862;2023-02-08T10:36:37;4.90;99.90
52867;DHT22;38739;53.324;6.862;2023-02-08T10:39:17;5.00;99.90
52867;DHT22;38739;53.324;6.862;2023-02-08T10:41:44;5.10;99.90
52867;DHT22;38739;53.324;6.862;2023-02-08T10:47:13;5.20;99.90
52867;DHT22;38739;53.324;6.862;2023-02-08T10:49:52;5.20;99.90
52867;DHT22;38739;53.324;6.862;2023-02-08T10:52:19;5.40;99.90
52867;DHT22;38739;53.324;6.862;2023-02-08T10:54:45;5.50;99.90
52867;DHT22;38739;53.324;6.862;2023-02-08T10:57:22;5.70;99.90
52867;DHT22;38739;53.324;6.862;2023-02-08T10:59:54;5.70;99.90
52867;DHT22;38739;53.324;6.862;2023-02-08T11:02:28;6.00;99.90
52867;DHT22;38739;53.324;6.862;2023-02-08T11:05:14;6.10;99.90
52867;DHT22;38739;53.324;6.862;2023-02-08T11:07:40;6.50;99.90
52867;DHT22;38739;53.324;6.862;2023-02-08T11:18:06;7.40;99.90
52867;DHT22;38739;53.324;6.862;2023-02-08T11:20:40;7.70;99.90
52867;DHT22;38739;53.324;6.862;2023-02-08T11:23:20;8.20;99.90
52867;DHT22;38739;53.324;6.862;2023-02-08T11:26:16;8.60;99.90
52867;DHT22;38739;53.324;6.862;2023-02-08T11:28:40;9.30;99.90
52867;DHT22;38739;53.324;6.862;2023-02-08T11:31:19;9.80;99.90
52867;DHT22;38739;53.324;6.862;2023-02-08T11:34:00;10.60;99.90
52867;DHT22;38739;53.324;6.862;2023-02-08T11:36:27;11.20;95.50
52867;DHT22;38739;53.324;6.862;2023-02-08T11:38:53;11.60;95.80
52867;DHT22;38739;53.324;6.862;2023-02-08T11:41:32;12.20;94.50
52867;DHT22;38739;53.324;6.862;2023-02-08T11:44:03;12.60;92.60
52867;DHT22;38739;53.324;6.862;2023-02-08T11:46:35;13.00;88.70
52867;DHT22;38739;53.324;6.862;2023-02-08T11:49:43;12.70;84.50
52867;DHT22;38739;53.324;6.862;2023-02-08T12:01:03;14.30;72.60
52867;DHT22;38739;53.324;6.862;2023-02-08T12:03:37;14.30;71.40
52867;DHT22;38739;53.324;6.862;2023-02-08T12:09:07;11.70;72.70
52867;DHT22;38739;53.324;6.862;2023-02-08T12:11:44;10.50;77.00
52867;DHT22;38739;53.324;6.862;2023-02-08T12:16:57;8.90;82.80
52867;DHT22;38739;53.324;6.862;2023-02-08T12:22:24;7.90;86.30
52867;DHT22;38739;53.324;6.862;2023-02-08T12:25:18;7.60;89.20
52867;DHT22;38739;53.324;6.862;2023-02-08T12:30:56;7.10;90.50
52867;DHT22;38739;53.324;6.862;2023-02-08T12:33:38;6.90;91.00
52867;DHT22;38739;53.324;6.862;2023-02-08T12:36:23;6.70;90.80
52867;DHT22;38739;53.324;6.862;2023-02-08T12:53:25;6.00;91.70
52867;DHT22;38739;53.324;6.862;2023-02-08T12:55:58;6.00;91.90
52867;DHT22;38739;53.324;6.862;2023-02-08T12:58:30;5.90;91.00
52867;DHT22;38739;53.324;6.862;2023-02-08T13:06:29;5.80;92.00
52867;DHT22;38739;53.324;6.862;2023-02-08T13:10:19;5.80;92.00
52867;DHT22;38739;53.324;6.862;2023-02-08T13:12:23;5.80;92.30
52867;DHT22;38739;53.324;6.862;2023-02-08T13:14:57;5.70;92.20
52867;DHT22;38739;53.324;6.862;2023-02-08T13:17:29;5.70;92.60
52867;DHT22;38739;53.324;6.862;2023-02-08T13:20:25;5.70;92.00
52867;DHT22;38739;53.324;6.862;2023-02-08T13:22:56;5.70;92.40
52867;DHT22;38739;53.324;6.862;2023-02-08T13:25:36;5.60;92.70
52867;DHT22;38739;53.324;6.862;2023-02-08T13:28:06;5.60;92.70
52867;DHT22;38739;53.324;6.862;2023-02-08T13:30:36;5.60;93.00
52867;DHT22;38739;53.324;6.862;2023-02-08T13:33:16;5.60;93.00
52867;DHT22;38739;53.324;6.862;2023-02-08T13:35:57;5.50;93.00
52867;DHT22;38739;53.324;6.862;2023-02-08T13:38:32;5.50;93.20
52867;DHT22;38739;53.324;6.862;2023-02-08T13:41:16;5.50;93.50
52867;DHT22;38739;53.324;6.862;2023-02-08T13:46:49;5.40;93.50
52867;DHT22;38739;53.324;6.862;2023-02-08T13:49:57;5.40;93.20
52867;DHT22;38739;53.324;6.862;2023-02-08T13:58:02;5.40;93.40
52867;DHT22;38739;53.324;6.862;2023-02-08T14:00:30;5.40;93.60
52867;DHT22;38739;53.324;6.862;2023-02-08T14:05:50;5.40;93.00
52867;DHT22;38739;53.324;6.862;2023-02-08T14:08:29;5.40;92.40
52867;DHT22;38739;53.324;6.862;2023-02-08T14:13:55;5.40;92.30
52867;DHT22;38739;53.324;6.862;2023-02-08T14:16:34;5.40;92.80
52867;DHT22;38739;53.324;6.862;2023-02-08T14:19:23;5.40;91.70
52867;DHT22;38739;53.324;6.862;2023-02-08T14:27:37;5.30;91.90
52867;DHT22;38739;53.324;6.862;2023-02-08T14:32:47;5.30;92.30
52867;DHT22;38739;53.324;6.862;2023-02-08T14:37:43;5.30;92.80
52867;DHT22;38739;53.324;6.862;2023-02-08T14:45:57;5.20;92.60
52867;DHT22;38739;53.324;6.862;2023-02-08T14:48:24;5.20;92.50
52867;DHT22;38739;53.324;6.862;2023-02-08T14:50:56;5.20;93.10
52867;DHT22;38739;53.324;6.862;2023-02-08T14:53:48;5.10;93.00
52867;DHT22;38739;53.324;6.862;2023-02-08T14:56:43;5.10;93.30
52867;DHT22;38739;53.324;6.862;2023-02-08T14:59:07;5.10;93.50
52867;DHT22;38739;53.324;6.862;2023-02-08T15:01:45;5.10;94.20
52867;DHT22;38739;53.324;6.862;2023-02-08T15:04:13;5.10;94.90
52867;DHT22;38739;53.324;6.862;2023-02-08T15:09:30;5.10;95.80
52867;DHT22;38739;53.324;6.862;2023-02-08T15:12:07;5.10;95.70
52867;DHT22;38739;53.324;6.862;2023-02-08T15:14:37;5.00;95.80
52867;DHT22;38739;53.324;6.862;2023-02-08T15:17:05;5.00;96.00
52867;DHT22;38739;53.324;6.862;2023-02-08T15:19:33;4.90;96.20
52867;DHT22;38739;53.324;6.862;2023-02-08T15:24:57;4.90;96.70
52867;DHT22;38739;53.324;6.862;2023-02-08T15:27:29;4.90;96.30
52867;DHT22;38739;53.324;6.862;2023-02-08T15:29:57;4.80;96.40
52867;DHT22;38739;53.324;6.862;2023-02-08T15:32:32;4.80;96.40
52867;DHT22;38739;53.324;6.862;2023-02-08T15:35:02;4.70;96.60
52867;DHT22;38739;53.324;6.862;2023-02-08T15:37:31;4.70;96.60
52867;DHT22;38739;53.324;6.862;2023-02-08T15:39:58;4.70;96.70
52867;DHT22;38739;53.324;6.862;2023-02-08T15:42:27;4.60;96.70
52867;DHT22;38739;53.324;6.862;2023-02-08T15:44:54;4.60;96.80
52867;DHT22;38739;53.324;6.862;2023-02-08T15:47:32;4.50;96.80
52867;DHT22;38739;53.324;6.862;2023-02-08T15:49:58;4.50;97.20
52867;DHT22;38739;53.324;6.862;2023-02-08T15:52:30;4.40;96.90
52867;DHT22;38739;53.324;6.862;2023-02-08T15:54:57;4.40;97.30
52867;DHT22;38739;53.324;6.862;2023-02-08T15:57:41;4.30;96.60
52867;DHT22;38739;53.324;6.862;2023-02-08T16:00:15;4.30;97.20
52867;DHT22;38739;53.324;6.862;2023-02-08T16:02:43;4.20;97.90
52867;DHT22;38739;53.324;6.862;2023-02-08T16:05:19;4.10;98.20
52867;DHT22;38739;53.324;6.862;2023-02-08T16:07:46;4.10;98.80
52867;DHT22;38739;53.324;6.862;2023-02-08T16:12:52;4.00;99.20
52867;DHT22;38739;53.324;6.862;2023-02-08T16:15:44;3.90;99.40
52867;DHT22;38739;53.324;6.862;2023-02-08T16:21:37;3.80;99.40
52867;DHT22;38739;53.324;6.862;2023-02-08T16:27:02;3.70;99.80
52867;DHT22;38739;53.324;6.862;2023-02-08T16:29:32;3.60;99.50
52867;DHT22;38739;53.324;6.862;2023-02-08T16:32:07;3.60;99.60
52867;DHT22;38739;53.324;6.862;2023-02-08T16:34:35;3.50;99.70
52867;DHT22;38739;53.324;6.862;2023-02-08T16:37:03;3.40;99.20
52867;DHT22;38739;53.324;6.862;2023-02-08T16:39:51;3.40;99.70
52867;DHT22;38739;53.324;6.862;2023-02-08T16:42:32;3.30;99.40
52867;DHT22;38739;53.324;6.862;2023-02-08T16:47:38;3.20;99.70
52867;DHT22;38739;53.324;6.862;2023-02-08T16:50:06;3.10;99.50
52867;DHT22;38739;53.324;6.862;2023-02-08T16:52:34;3.10;99.20
52867;DHT22;38739;53.324;6.862;2023-02-08T16:55:00;3.10;99.80
52867;DHT22;38739;53.324;6.862;2023-02-08T16:57:47;3.00;99.50
52867;DHT22;38739;53.324;6.862;2023-02-08T17:00:20;3.00;99.20
52867;DHT22;38739;53.324;6.862;2023-02-08T17:02:47;3.00;99.30
52867;DHT22;38739;53.324;6.862;2023-02-08T17:05:17;2.90;99.40
52867;DHT22;38739;53.324;6.862;2023-02-08T17:07:50;2.90;99.60
52867;DHT22;38739;53.324;6.862;2023-02-08T17:10:30;2.90;99.10
52867;DHT22;38739;53.324;6.862;2023-02-08T17:12:57;2.80;99.10
52867;DHT22;38739;53.324;6.862;2023-02-08T17:15:24;2.80;99.20
52867;DHT22;38739;53.324;6.862;2023-02-08T17:17:50;2.70;99.60
52867;DHT22;38739;53.324;6.862;2023-02-08T17:20:20;2.70;99.90
52867;DHT22;38739;53.324;6.862;2023-02-08T17:22:46;2.60;99.60
52867;DHT22;38739;53.324;6.862;2023-02-08T17:25:12;2.60;99.70
52867;DHT22;38739;53.324;6.862;2023-02-08T17:27:48;2.60;99.60
52867;DHT22;38739;53.324;6.862;2023-02-08T17:30:32;2.60;99.90
52867;DHT22;38739;53.324;6.862;2023-02-08T17:32:59;2.50;99.70
52867;DHT22;38739;53.324;6.862;2023-02-08T17:35:26;2.50;99.50
52867;DHT22;38739;53.324;6.862;2023-02-08T17:37:56;2.40;99.80
52867;DHT22;38739;53.324;6.862;2023-02-08T17:40:27;2.40;99.90
52867;DHT22;38739;53.324;6.862;2023-02-08T17:42:55;2.40;99.90
52867;DHT22;38739;53.324;6.862;2023-02-08T17:45:21;2.30;99.90
52867;DHT22;38739;53.324;6.862;2023-02-08T17:47:48;2.20;99.90
52867;DHT22;38739;53.324;6.862;2023-02-08T17:50:16;2.30;99.90
52867;DHT22;38739;53.324;6.862;2023-02-08T17:52:43;2.20;99.90
52867;DHT22;38739;53.324;6.862;2023-02-08T17:55:11;2.20;99.90
52867;DHT22;38739;53.324;6.862;2023-02-08T17:57:38;2.20;99.90
52867;DHT22;38739;53.324;6.862;2023-02-08T18:00:17;2.20;99.90
52867;DHT22;38739;53.324;6.862;2023-02-08T18:02:49;2.10;99.90
52867;DHT22;38739;53.324;6.862;2023-02-08T18:05:20;2.10;99.90
52867;DHT22;38739;53.324;6.862;2023-02-08T18:07:46;2.10;99.90
52867;DHT22;38739;53.324;6.862;2023-02-08T18:10:12;2.00;99.90
52867;DHT22;38739;53.324;6.862;2023-02-08T18:12:40;2.00;99.90
52867;DHT22;38739;53.324;6.862;2023-02-08T18:15:08;2.00;99.90
52867;DHT22;38739;53.324;6.862;2023-02-08T18:17:34;2.00;99.90
52867;DHT22;38739;53.324;6.862;2023-02-08T18:20:00;2.00;99.90
52867;DHT22;38739;53.324;6.862;2023-02-08T18:22:27;2.00;99.90
52867;DHT22;38739;53.324;6.862;2023-02-08T18:24:52;1.90;99.90
52867;DHT22;38739;53.324;6.862;2023-02-08T18:27:20;1.80;99.90
52867;DHT22;38739;53.324;6.862;2023-02-08T18:29:46;1.80;99.90
52867;DHT22;38739;53.324;6.862;2023-02-08T18:32:12;1.80;99.90